createdAt,value
2022-12-18T00:00:57.403Z,7.30
2022-12-18T00:06:17.745Z,7.20
2022-12-18T00:11:23.195Z,7.50
2022-12-18T00:16:27.103Z,4.10
2022-12-18T00:21:46.469Z,6.40
2022-12-18T00:26:48.951Z,9.50
2022-12-18T00:31:51.638Z,3.80
2022-12-18T00:36:54.341Z,3.90
2022-12-18T00:41:59.838Z,8.60
2022-12-18T00:47:02.375Z,7.20
2022-12-18T00:52:05.452Z,7.60
2022-12-18T00:57:07.951Z,6.80
2022-12-18T01:02:10.608Z,7.10
2022-12-18T01:07:13.144Z,9.60
2022-12-18T01:12:15.815Z,8.40
2022-12-18T01:17:18.423Z,7.40
2022-12-18T01:22:20.949Z,7.90
2022-12-18T01:27:23.474Z,7.00
2022-12-18T01:32:25.993Z,6.00
2022-12-18T01:37:28.597Z,6.10
2022-12-18T01:42:31.140Z,8.70
2022-12-18T01:47:37.590Z,8.60
2022-12-18T01:52:43.210Z,6.80
2022-12-18T01:57:45.974Z,7.40
2022-12-18T02:02:49.035Z,7.80
2022-12-18T02:08:19.297Z,8.60
2022-12-18T02:13:33.280Z,7.10
2022-12-18T02:18:45.129Z,6.20
2022-12-18T02:23:50.539Z,5.50
2022-12-18T02:28:59.613Z,6.90
2022-12-18T02:34:05.737Z,5.60
2022-12-18T02:39:09.952Z,5.10
2022-12-18T02:44:14.522Z,5.70
2022-12-18T02:49:23.072Z,5.30
2022-12-18T02:54:32.499Z,6.60
2022-12-18T02:59:43.968Z,6.20
2022-12-18T03:04:55.482Z,3.70
2022-12-18T03:09:59.092Z,4.20
2022-12-18T03:15:15.939Z,4.80
2022-12-18T03:20:22.994Z,4.00
2022-12-18T03:25:27.653Z,6.30
2022-12-18T03:30:34.855Z,4.90
2022-12-18T03:35:41.127Z,6.30
2022-12-18T03:40:51.851Z,6.50
2022-12-18T03:46:03.878Z,6.30
2022-12-18T03:51:10.964Z,7.10
2022-12-18T03:56:17.092Z,6.70
2022-12-18T04:01:21.899Z,7.00
2022-12-18T04:06:24.556Z,7.80
2022-12-18T04:11:27.316Z,7.70
2022-12-18T04:16:30.103Z,8.00
2022-12-18T04:21:32.581Z,7.40
2022-12-18T04:26:35.193Z,6.90
2022-12-18T04:31:37.878Z,8.00
2022-12-18T04:36:40.402Z,7.30
2022-12-18T04:41:42.863Z,8.70
2022-12-18T04:46:45.434Z,8.80
2022-12-18T04:51:48.000Z,9.00
2022-12-18T04:56:50.543Z,9.30
2022-12-18T05:01:53.241Z,11.00
2022-12-18T05:06:55.868Z,9.80
2022-12-18T05:11:58.344Z,10.70
2022-12-18T05:17:01.408Z,9.60
2022-12-18T05:22:04.039Z,10.70
2022-12-18T05:27:06.566Z,11.30
2022-12-18T05:32:09.035Z,12.00
2022-12-18T05:37:11.526Z,12.30
2022-12-18T05:42:13.996Z,11.60
2022-12-18T05:47:16.747Z,13.00
2022-12-18T05:52:19.307Z,10.30
2022-12-18T05:57:21.823Z,7.90
2022-12-18T06:02:24.430Z,10.50
2022-12-18T06:07:27.141Z,7.50
2022-12-18T06:12:29.615Z,6.40
2022-12-18T06:17:33.494Z,7.10
2022-12-18T06:22:36.096Z,8.00
2022-12-18T06:27:38.653Z,13.70
2022-12-18T06:32:41.231Z,15.30
2022-12-18T06:37:43.736Z,13.90
2022-12-18T06:42:46.434Z,15.50
2022-12-18T06:47:48.889Z,12.10
2022-12-18T06:52:51.403Z,9.40
2022-12-18T06:57:53.932Z,9.40
2022-12-18T07:02:56.461Z,14.90
2022-12-18T07:07:59.707Z,7.70
2022-12-18T07:13:02.183Z,12.50
2022-12-18T07:18:04.794Z,12.10
2022-12-18T07:23:07.612Z,5.60
2022-12-18T07:28:15.627Z,11.70
2022-12-18T07:33:19.760Z,9.60
2022-12-18T07:38:22.951Z,10.90
2022-12-18T07:43:25.398Z,12.00
2022-12-18T07:48:29.425Z,12.20
2022-12-18T07:53:33.337Z,14.30
2022-12-18T07:58:36.533Z,12.00
2022-12-18T08:03:40.983Z,11.70
2022-12-18T08:13:47.662Z,7.10
2022-12-18T08:18:50.632Z,9.90
2022-12-18T08:23:54.854Z,5.90
2022-12-18T08:28:59.457Z,17.80
2022-12-18T08:34:02.007Z,18.90
2022-12-18T08:39:04.520Z,13.80
2022-12-18T08:44:11.542Z,12.10
2022-12-18T08:49:14.238Z,14.60
2022-12-18T08:54:16.702Z,8.00
2022-12-18T08:59:20.786Z,8.80
2022-12-18T09:04:23.558Z,19.40
2022-12-18T09:09:26.048Z,17.10
2022-12-18T09:14:28.550Z,20.40
2022-12-18T09:19:31.241Z,19.40
2022-12-18T09:24:33.782Z,21.00
2022-12-18T09:29:36.242Z,25.00
2022-12-18T09:34:38.729Z,27.40
2022-12-18T09:39:41.210Z,32.10
2022-12-18T09:44:48.935Z,24.50
2022-12-18T09:49:57.409Z,21.10
2022-12-18T09:55:05.804Z,19.90
2022-12-18T10:00:19.573Z,20.90
2022-12-18T10:05:34.934Z,20.10
2022-12-18T10:10:49.696Z,16.60
2022-12-18T10:15:59.372Z,21.80
2022-12-18T10:21:12.769Z,17.10
2022-12-18T10:26:15.421Z,21.00
2022-12-18T10:31:24.758Z,21.80
2022-12-18T10:36:27.720Z,16.20
2022-12-18T10:41:31.824Z,21.40
2022-12-18T10:46:34.464Z,19.00
2022-12-18T10:51:38.622Z,20.20
2022-12-18T10:56:41.678Z,21.30
2022-12-18T11:01:50.452Z,21.80
2022-12-18T11:06:54.784Z,21.10
2022-12-18T11:12:00.436Z,19.30
2022-12-18T11:17:25.428Z,20.50
2022-12-18T11:22:32.316Z,17.50
2022-12-18T11:27:34.827Z,20.60
2022-12-18T11:32:40.284Z,26.30
2022-12-18T11:37:47.064Z,23.30
2022-12-18T11:42:55.668Z,20.80
2022-12-18T11:48:01.393Z,21.20
2022-12-18T11:53:06.265Z,21.50
2022-12-18T11:58:18.275Z,22.80
2022-12-18T12:03:40.111Z,21.80
2022-12-18T12:08:57.268Z,22.70
2022-12-18T12:14:02.663Z,24.60
2022-12-18T12:19:08.074Z,20.30
2022-12-18T12:24:10.500Z,23.20
2022-12-18T12:29:21.299Z,26.50
2022-12-18T12:34:35.579Z,26.90
2022-12-18T12:39:41.635Z,25.60
2022-12-18T12:44:56.209Z,18.20
2022-12-18T12:50:08.089Z,22.80
2022-12-18T12:55:16.951Z,22.00
2022-12-18T13:00:20.965Z,24.20
2022-12-18T13:05:30.029Z,20.90
2022-12-18T13:10:34.008Z,19.70
2022-12-18T13:15:41.969Z,23.10
2022-12-18T13:20:53.715Z,21.50
2022-12-18T13:26:28.146Z,24.00
2022-12-18T13:31:37.514Z,24.10
2022-12-18T13:36:40.418Z,19.10
2022-12-18T13:41:43.637Z,13.20
2022-12-18T13:46:47.799Z,21.70
2022-12-18T13:51:52.700Z,24.50
2022-12-18T13:56:55.655Z,20.10
2022-12-18T14:02:02.996Z,21.10
2022-12-18T14:07:11.598Z,21.60
2022-12-18T14:12:25.648Z,23.70
2022-12-18T14:17:28.485Z,21.30
2022-12-18T14:22:31.754Z,13.90
2022-12-18T14:27:39.854Z,16.70
2022-12-18T14:32:42.328Z,21.20
2022-12-18T14:37:44.811Z,10.80
2022-12-18T14:42:47.378Z,16.20
2022-12-18T14:47:49.874Z,16.70
2022-12-18T14:52:53.335Z,19.70
2022-12-18T14:57:57.199Z,21.40
2022-12-18T15:02:59.841Z,12.90
2022-12-18T15:08:03.521Z,7.30
2022-12-18T15:13:06.319Z,11.50
2022-12-18T15:18:08.760Z,20.40
2022-12-18T15:23:16.080Z,15.90
2022-12-18T15:28:24.662Z,16.90
2022-12-18T15:33:31.937Z,14.50
2022-12-18T15:38:34.462Z,20.10
2022-12-18T15:43:39.151Z,21.60
2022-12-18T15:48:45.799Z,22.50
2022-12-18T15:53:51.097Z,22.60
2022-12-18T15:58:53.585Z,22.10
2022-12-18T16:03:57.033Z,20.50
2022-12-18T16:08:59.774Z,17.50
2022-12-18T16:14:02.314Z,22.40
2022-12-18T16:19:05.029Z,22.30
2022-12-18T16:24:15.796Z,19.10
2022-12-18T16:29:19.208Z,18.20
2022-12-18T16:34:28.755Z,18.80
2022-12-18T16:39:31.758Z,15.80
2022-12-18T16:44:34.827Z,23.10
2022-12-18T16:49:38.454Z,18.90
2022-12-18T16:54:40.964Z,17.00
2022-12-18T16:59:43.800Z,16.60
2022-12-18T17:04:47.309Z,17.70
2022-12-18T17:09:52.005Z,19.30
2022-12-18T17:14:54.512Z,18.70
2022-12-18T17:19:57.076Z,18.00
2022-12-18T17:24:59.573Z,18.30
2022-12-18T17:30:02.582Z,16.50
2022-12-18T17:35:07.373Z,14.10
2022-12-18T17:40:10.576Z,13.30
2022-12-18T17:45:13.046Z,16.00
2022-12-18T17:50:15.690Z,13.00
2022-12-18T17:55:18.319Z,12.60
2022-12-18T18:01:38.518Z,15.40
2022-12-18T18:06:53.182Z,17.70
2022-12-18T18:11:58.655Z,16.40
2022-12-18T18:17:04.664Z,15.30
2022-12-18T18:27:10.383Z,13.90
2022-12-18T18:32:12.998Z,15.60
2022-12-18T18:37:15.475Z,14.30
2022-12-18T18:42:17.942Z,14.10
2022-12-18T18:47:20.948Z,15.70
2022-12-18T18:52:23.590Z,17.60
2022-12-18T18:57:30.294Z,19.50
2022-12-18T19:02:33.364Z,22.50
2022-12-18T19:07:36.025Z,21.30
2022-12-18T19:12:41.517Z,29.80
2022-12-18T19:17:46.951Z,33.40
2022-12-18T19:22:54.988Z,30.10
2022-12-18T19:27:58.323Z,36.20
2022-12-18T19:33:09.756Z,23.10
2022-12-18T19:38:23.271Z,19.60
2022-12-18T19:43:25.921Z,17.50
2022-12-18T19:48:29.243Z,18.20
2022-12-18T19:53:32.031Z,21.50
2022-12-18T19:58:35.140Z,22.10
2022-12-18T20:03:37.925Z,17.80
2022-12-18T20:08:41.480Z,16.70
2022-12-18T20:13:44.842Z,16.70
2022-12-18T20:18:49.064Z,14.10
2022-12-18T20:23:52.458Z,13.20
2022-12-18T20:28:55.801Z,14.90
2022-12-18T20:34:01.484Z,17.10
2022-12-18T20:39:06.541Z,15.90
2022-12-18T20:44:21.772Z,13.60
2022-12-18T20:49:27.310Z,12.50
2022-12-18T20:54:29.969Z,13.50
2022-12-18T20:59:32.647Z,15.40
2022-12-18T21:04:35.141Z,16.40
2022-12-18T21:09:38.650Z,15.20
2022-12-18T21:14:42.816Z,14.60
2022-12-18T21:19:45.278Z,15.10
2022-12-18T21:24:48.899Z,15.30
2022-12-18T21:29:52.247Z,14.30
2022-12-18T21:34:55.235Z,21.10
2022-12-18T21:39:57.725Z,17.00
2022-12-18T21:45:00.372Z,16.00
2022-12-18T21:50:03.143Z,12.60
2022-12-18T21:55:09.341Z,13.20
2022-12-18T22:00:18.752Z,13.10
2022-12-18T22:05:22.326Z,15.40
2022-12-18T22:10:24.795Z,14.00
2022-12-18T22:15:27.349Z,15.50
2022-12-18T22:20:30.270Z,15.40
2022-12-18T22:25:33.988Z,13.10
2022-12-18T22:30:37.706Z,13.40
2022-12-18T22:35:40.261Z,14.00
2022-12-18T22:40:43.625Z,16.00
2022-12-18T22:45:47.263Z,15.70
2022-12-18T22:50:49.865Z,13.90
2022-12-18T22:56:00.463Z,12.90
2022-12-18T23:01:03.046Z,11.00
2022-12-18T23:06:06.977Z,10.50
2022-12-18T23:11:10.700Z,14.30
2022-12-18T23:16:16.413Z,15.10
2022-12-18T23:21:20.644Z,16.30
2022-12-18T23:26:25.396Z,13.70
2022-12-18T23:31:30.633Z,14.30
2022-12-18T23:36:43.883Z,17.20
2022-12-18T23:41:49.187Z,17.20
2022-12-18T23:46:51.800Z,17.40
2022-12-18T23:51:55.031Z,21.90
2022-12-18T23:56:57.544Z,15.70
